Albertville, AL (35951)

1:51 PM CDT on August 28, 2015 (GMT -0500)
Double Bridges | | Change Station
CLOSE
Current Station
Personal Weather Station
Location: Boaz, AL
Elevation: 1083 ft
Nearby Weather Stations

Elev 1083 ft 34.22 °N, 86.13 °W | Updated 10 minutes ago

Partly Cloudy
Partly Cloudy
84.4 °F
Feels Like 90 °F
N
1.7
Wind Variable Wind from SSE

Today
High -- | Low -- °F
--% Chance of Precip.
Yesterday
High -- | Low -- °F
Precip. -- in
6:15 AM 7:16 PM
Waxing Gibbous, 99% visible
Pressure 30.11 in
Visibility 10.0 miles
Clouds Scattered Clouds 2800 ft
Scattered Clouds 3400 ft
Heat Index 90 °F
Dew Point 72 °F
Humidity 67%
Rainfall 0.00 in
Snow Depth Not available.
UV 8 out of 12
Pollen 9.30 out of 12
Air Quality Not available.
Flu Activity Not available.
METAR K8A0 281835Z AUTO 09006KT 10SM SCT028 SCT034 27/23 A3011 RMK AO2
Pressure 30.11 in
Visibility 10.0 miles
Clouds Scattered Clouds 2800 ft
Scattered Clouds 3400 ft
Heat Index 90 °F
Dew Point 72 °F
Humidity 67%
Rainfall 0.00 in
Snow Depth Not available.
UV 8 out of 12
Pollen 9.30 out of 12
Air Quality Not available.
Flu Activity Not available.
METAR K8A0 281835Z AUTO 09006KT 10SM SCT028 SCT034 27/23 A3011 RMK AO2

10-Day Weather Forecast

×

Almanac

Astronomy

Aug. 28, 2015 Rise Set
Actual Time
Civil Twilight
Nautical Twilight
Astronomical Twilight
Moon
Length of Visible Light
Length of Day
Tomorrow will be .
, % of the Moon is Illuminated

Today's Extremes

State Highs State Lows

Community

WunderPhotos

Upload Photos

1,850,453 photos uploaded!

WunderBlogs® & News

Nearby

Air Quality

  Air Quality AQ Index Pollutant
Not available.

Snow Depth

Station Depth Elevation

Earthquake Activity

City Distance Mag. Time & Date
Minimum magnitude displayed is 2.5.

Coastal Water Temperatures

Place Temperature

Stations

Nearby Weather Stations

Station Location Temp. Windchill Dew Point Humidity Wind Precip. Elev Updated Type